createdAt,value
2023-06-02T00:02:38.533Z,50.50
2023-06-02T00:06:20.481Z,50.50
2023-06-02T00:10:02.420Z,50.50
2023-06-02T00:13:44.328Z,50.50
2023-06-02T00:17:26.362Z,50.60
2023-06-02T00:21:09.364Z,50.50
2023-06-02T00:24:51.215Z,50.40
2023-06-02T00:28:33.065Z,50.50
2023-06-02T00:32:14.937Z,50.40
2023-06-02T00:35:56.854Z,50.40
2023-06-02T00:39:38.710Z,50.30
2023-06-02T00:43:20.784Z,50.50
2023-06-02T00:47:02.587Z,50.40
2023-06-02T00:50:44.644Z,50.60
2023-06-02T00:54:27.761Z,50.90
2023-06-02T00:58:14.673Z,51.20
2023-06-02T01:01:56.566Z,51.30
2023-06-02T01:05:39.052Z,51.10
2023-06-02T01:09:21.622Z,51.10
2023-06-02T01:13:03.524Z,51.20
2023-06-02T01:16:45.743Z,51.30
2023-06-02T01:20:29.828Z,51.30
2023-06-02T01:24:11.978Z,51.30
2023-06-02T01:27:54.046Z,51.40
2023-06-02T01:31:43.404Z,51.40
2023-06-02T01:35:29.759Z,51.40
2023-06-02T01:39:13.231Z,51.50
2023-06-02T01:42:56.556Z,51.30
2023-06-02T01:46:40.965Z,51.20
2023-06-02T01:50:22.958Z,51.20
2023-06-02T01:54:05.488Z,51.40
2023-06-02T01:57:47.265Z,51.90
2023-06-02T02:01:29.083Z,52.30
2023-06-02T02:05:12.168Z,52.50
2023-06-02T02:08:53.970Z,52.40
2023-06-02T02:12:36.254Z,52.50
2023-06-02T02:16:18.181Z,52.40
2023-06-02T02:19:59.960Z,52.50
2023-06-02T02:23:41.789Z,52.50
2023-06-02T02:27:24.485Z,52.20
2023-06-02T02:31:06.390Z,52.00
2023-06-02T02:34:49.638Z,52.00
2023-06-02T02:38:31.556Z,52.00
2023-06-02T02:42:13.423Z,52.20
2023-06-02T02:45:55.447Z,52.60
2023-06-02T02:49:37.353Z,52.70
2023-06-02T02:53:19.480Z,52.60
2023-06-02T02:57:01.699Z,52.50
2023-06-02T03:00:43.555Z,52.50
2023-06-02T03:04:25.765Z,52.50
2023-06-02T03:08:08.270Z,52.60
2023-06-02T03:11:50.414Z,52.80
2023-06-02T03:15:34.604Z,52.70
2023-06-02T03:19:16.576Z,52.70
2023-06-02T03:22:58.973Z,52.80
2023-06-02T03:26:41.863Z,52.80
2023-06-02T03:30:24.968Z,53.20
2023-06-02T03:34:07.288Z,53.30
2023-06-02T03:37:49.073Z,53.10
2023-06-02T03:41:31.655Z,53.10
2023-06-02T03:45:13.453Z,53.00
2023-06-02T03:48:55.751Z,53.00
2023-06-02T03:52:37.511Z,53.00
2023-06-02T03:56:21.271Z,52.90
2023-06-02T04:00:05.323Z,52.80
2023-06-02T04:03:47.128Z,52.90
2023-06-02T04:07:28.927Z,53.10
2023-06-02T04:11:10.779Z,53.50
2023-06-02T04:14:52.544Z,53.50
2023-06-02T04:18:37.998Z,53.50
2023-06-02T04:22:20.790Z,53.60
2023-06-02T04:26:02.903Z,53.40
2023-06-02T04:29:45.056Z,53.30
2023-06-02T04:33:27.853Z,53.30
2023-06-02T04:37:09.692Z,53.30
2023-06-02T04:40:52.250Z,53.40
2023-06-02T04:44:35.344Z,53.20
2023-06-02T04:48:17.193Z,53.20
2023-06-02T04:51:59.552Z,53.20
2023-06-02T04:55:41.416Z,53.20
2023-06-02T04:59:24.345Z,53.00
2023-06-02T05:03:06.327Z,53.30
2023-06-02T05:06:49.168Z,53.40
2023-06-02T05:10:30.944Z,53.40
2023-06-02T05:14:12.751Z,53.30
2023-06-02T05:17:54.970Z,53.20
2023-06-02T05:21:36.784Z,53.40
2023-06-02T05:25:18.773Z,53.50
2023-06-02T05:29:00.797Z,53.70
2023-06-02T05:32:42.608Z,53.70
2023-06-02T05:36:24.383Z,53.70
2023-06-02T05:40:06.648Z,53.70
2023-06-02T05:43:48.497Z,53.70
2023-06-02T05:47:31.595Z,53.60
2023-06-02T05:51:13.505Z,53.60
2023-06-02T05:54:55.468Z,53.80
2023-06-02T05:58:40.713Z,54.00
2023-06-02T06:02:23.507Z,54.00
2023-06-02T06:06:05.912Z,53.70
2023-06-02T06:09:48.258Z,53.60
2023-06-02T06:13:30.230Z,53.50
2023-06-02T06:17:12.011Z,53.40
2023-06-02T06:20:53.827Z,53.40
2023-06-02T06:24:35.646Z,53.60
2023-06-02T06:28:17.460Z,53.60
2023-06-02T06:31:59.322Z,53.60
2023-06-02T06:35:41.174Z,53.60
2023-06-02T06:39:23.009Z,53.40
2023-06-02T06:43:19.303Z,53.40
2023-06-02T06:47:05.756Z,53.40
2023-06-02T06:50:49.945Z,53.30
2023-06-02T06:54:31.725Z,53.20
2023-06-02T06:58:13.547Z,53.20
2023-06-02T07:01:55.432Z,53.40
2023-06-02T07:05:37.391Z,53.40
2023-06-02T07:09:19.272Z,53.40
2023-06-02T07:13:01.108Z,53.30
2023-06-02T07:16:46.812Z,53.40
2023-06-02T07:20:28.710Z,53.40
2023-06-02T07:24:10.490Z,53.30
2023-06-02T07:27:54.625Z,53.30
2023-06-02T07:31:37.153Z,53.20
2023-06-02T07:35:19.105Z,53.00
2023-06-02T07:39:00.927Z,52.80
2023-06-02T07:42:42.741Z,52.80
2023-06-02T07:46:24.697Z,53.00
2023-06-02T07:50:07.116Z,53.00
2023-06-02T07:53:48.944Z,52.90
2023-06-02T07:57:30.782Z,52.70
2023-06-02T08:01:13.077Z,52.70
2023-06-02T08:04:56.073Z,52.70
2023-06-02T08:08:37.936Z,52.60
2023-06-02T08:12:21.667Z,52.30
2023-06-02T08:16:26.352Z,52.20
2023-06-02T08:20:06.293Z,52.10
2023-06-02T08:23:48.071Z,52.10
2023-06-02T08:27:30.570Z,52.20
2023-06-02T08:31:12.369Z,52.10
2023-06-02T08:35:02.449Z,52.00
2023-06-02T08:38:45.732Z,52.00
2023-06-02T08:42:28.213Z,52.10
2023-06-02T08:46:16.829Z,51.90
2023-06-02T08:50:03.199Z,51.60
2023-06-02T08:53:45.523Z,51.60
2023-06-02T08:57:27.414Z,51.50
2023-06-02T09:01:09.204Z,51.40
2023-06-02T09:04:52.411Z,51.20
2023-06-02T09:08:34.274Z,51.20
2023-06-02T09:12:16.810Z,51.00
2023-06-02T09:16:01.074Z,50.80
2023-06-02T09:19:53.895Z,50.50
2023-06-02T09:23:43.688Z,50.30
2023-06-02T09:27:27.062Z,50.10
2023-06-02T09:31:09.111Z,50.00
2023-06-02T09:34:51.096Z,49.80
2023-06-02T09:38:44.064Z,49.70
2023-06-02T09:42:25.936Z,49.10
2023-06-02T09:46:08.104Z,49.30
2023-06-02T09:49:50.182Z,49.30
2023-06-02T09:53:32.517Z,48.90
2023-06-02T09:57:15.145Z,48.90
2023-06-02T10:00:56.970Z,48.70
2023-06-02T10:04:39.041Z,48.80
2023-06-02T10:08:42.671Z,49.10
2023-06-02T10:12:50.412Z,48.40
2023-06-02T10:16:50.911Z,48.60
2023-06-02T10:20:59.456Z,48.60
2023-06-02T10:24:59.233Z,47.60
2023-06-02T10:28:43.492Z,48.30
2023-06-02T10:32:34.781Z,48.60
2023-06-02T10:36:19.919Z,48.60
2023-06-02T10:40:02.115Z,48.50
2023-06-02T10:44:23.839Z,48.50
2023-06-02T10:48:35.240Z,48.40
2023-06-02T10:52:17.142Z,48.40
2023-06-02T10:56:37.097Z,48.50
2023-06-02T11:00:34.409Z,47.90
2023-06-02T11:04:36.506Z,48.00
2023-06-02T11:08:24.345Z,47.90
2023-06-02T11:12:06.393Z,47.90
2023-06-02T11:15:59.235Z,47.90
2023-06-02T11:19:49.445Z,48.00
2023-06-02T11:23:31.918Z,48.00
2023-06-02T11:27:13.675Z,47.80
2023-06-02T11:31:15.868Z,47.90
2023-06-02T11:35:08.847Z,47.90
2023-06-02T11:38:50.664Z,47.80
2023-06-02T11:42:45.891Z,47.80
2023-06-02T11:46:27.715Z,47.70
2023-06-02T11:50:09.746Z,48.00
2023-06-02T11:54:03.663Z,48.20
2023-06-02T11:57:45.665Z,47.70
2023-06-02T12:01:32.427Z,47.70
2023-06-02T12:05:37.258Z,47.50
2023-06-02T12:09:20.662Z,46.70
2023-06-02T12:13:02.715Z,46.60
2023-06-02T12:16:45.739Z,46.60
2023-06-02T12:20:41.642Z,46.60
2023-06-02T12:24:35.327Z,45.50
2023-06-02T12:28:17.187Z,45.20
2023-06-02T12:32:05.004Z,45.90
2023-06-02T12:35:47.407Z,45.20
2023-06-02T12:39:29.485Z,45.20
2023-06-02T12:43:11.580Z,45.00
2023-06-02T12:46:54.972Z,44.20
2023-06-02T12:50:36.853Z,43.60
2023-06-02T12:54:18.785Z,44.00
2023-06-02T12:58:00.597Z,43.00
2023-06-02T13:01:43.770Z,43.20
2023-06-02T13:05:28.704Z,42.50
2023-06-02T13:09:11.965Z,42.40
2023-06-02T13:12:53.831Z,42.50
2023-06-02T13:16:35.676Z,42.80
2023-06-02T13:20:17.474Z,42.30
2023-06-02T13:23:59.422Z,41.90
2023-06-02T13:27:43.081Z,41.30
2023-06-02T13:31:25.293Z,41.50
2023-06-02T13:35:07.567Z,41.20
2023-06-02T13:38:49.351Z,40.70
2023-06-02T13:42:31.450Z,40.40
2023-06-02T13:46:13.280Z,40.30
2023-06-02T13:49:55.134Z,40.10
2023-06-02T13:53:37.659Z,39.90
2023-06-02T13:57:19.496Z,39.20
2023-06-02T14:01:01.336Z,38.90
2023-06-02T14:04:43.841Z,38.40
2023-06-02T14:08:25.744Z,38.60
2023-06-02T14:12:08.380Z,38.00
2023-06-02T14:15:50.239Z,37.60
2023-06-02T14:19:32.111Z,37.60
2023-06-02T14:23:13.874Z,37.40
2023-06-02T14:26:57.626Z,37.40
2023-06-02T14:30:39.466Z,37.30
2023-06-02T14:34:21.273Z,36.80
2023-06-02T14:38:03.289Z,36.30
2023-06-02T14:41:45.076Z,36.40
2023-06-02T14:45:26.993Z,36.00
2023-06-02T14:49:08.977Z,36.00
2023-06-02T14:52:51.320Z,35.70
2023-06-02T14:56:33.102Z,35.40
2023-06-02T15:00:15.135Z,35.00
2023-06-02T15:03:57.052Z,34.30
2023-06-02T15:07:38.938Z,34.00
2023-06-02T15:11:20.902Z,34.30
2023-06-02T15:15:02.912Z,34.30
2023-06-02T15:18:52.661Z,33.90
2023-06-02T15:22:35.896Z,33.60
2023-06-02T15:26:17.697Z,33.30
2023-06-02T15:29:59.506Z,33.10
2023-06-02T15:33:42.665Z,32.70
2023-06-02T15:37:25.572Z,32.60
2023-06-02T15:41:07.531Z,31.90
2023-06-02T15:44:49.369Z,32.00
2023-06-02T15:48:31.178Z,31.60
2023-06-02T15:52:13.031Z,31.80
2023-06-02T15:55:54.827Z,31.60
2023-06-02T15:59:37.181Z,31.30
2023-06-02T16:03:19.097Z,31.00
2023-06-02T16:07:00.890Z,30.80
2023-06-02T16:10:43.281Z,30.50
2023-06-02T16:14:25.147Z,30.20
2023-06-02T16:18:07.148Z,30.20
2023-06-02T16:21:49.023Z,30.00
2023-06-02T16:25:31.681Z,29.60
2023-06-02T16:29:14.762Z,29.60
2023-06-02T16:32:56.661Z,29.50
2023-06-02T16:36:38.633Z,29.40
2023-06-02T16:40:20.460Z,29.10
2023-06-02T16:44:02.338Z,28.90
2023-06-02T16:47:44.237Z,29.00
2023-06-02T16:51:27.092Z,28.80
2023-06-02T16:55:10.710Z,28.70
2023-06-02T16:58:52.616Z,28.50
2023-06-02T17:02:34.770Z,28.40
2023-06-02T17:06:17.550Z,28.30
2023-06-02T17:09:59.531Z,28.10
2023-06-02T17:13:41.397Z,27.80
2023-06-02T17:17:24.664Z,28.00
2023-06-02T17:21:07.066Z,27.80
2023-06-02T17:24:49.823Z,27.80
2023-06-02T17:28:31.675Z,27.70
2023-06-02T17:32:15.660Z,27.50
2023-06-02T17:35:57.465Z,27.60
2023-06-02T17:39:40.703Z,27.60
2023-06-02T17:43:22.502Z,27.60
2023-06-02T17:47:04.675Z,27.50
2023-06-02T17:50:46.709Z,27.30
2023-06-02T17:54:28.575Z,27.30
2023-06-02T17:58:13.721Z,27.50
2023-06-02T18:01:55.635Z,27.30
2023-06-02T18:05:37.481Z,27.00
2023-06-02T18:09:19.497Z,26.80
2023-06-02T18:13:03.701Z,26.90
2023-06-02T18:16:45.651Z,26.70
2023-06-02T18:20:27.565Z,26.80
2023-06-02T18:24:09.370Z,26.60
2023-06-02T18:27:51.524Z,26.80
2023-06-02T18:31:33.457Z,26.70
2023-06-02T18:35:15.303Z,26.60
2023-06-02T18:38:57.125Z,26.60
2023-06-02T18:42:38.937Z,26.60
2023-06-02T18:46:20.732Z,26.70
2023-06-02T18:50:04.186Z,26.80
2023-06-02T18:53:46.580Z,26.90
2023-06-02T18:57:28.428Z,26.90
2023-06-02T19:01:10.682Z,26.80
2023-06-02T19:04:55.942Z,27.20
2023-06-02T19:08:37.753Z,27.90
2023-06-02T19:12:19.656Z,28.80
2023-06-02T19:16:01.557Z,29.50
2023-06-02T19:19:44.305Z,30.00
2023-06-02T19:23:26.293Z,30.40
2023-06-02T19:27:08.777Z,30.70
2023-06-02T19:30:50.552Z,31.00
2023-06-02T19:34:32.451Z,31.20
2023-06-02T19:38:14.355Z,31.40
2023-06-02T19:41:56.170Z,31.60
2023-06-02T19:45:38.114Z,31.80
2023-06-02T19:49:20.033Z,32.10
2023-06-02T19:53:01.870Z,32.30
2023-06-02T19:56:43.790Z,32.50
2023-06-02T20:00:25.679Z,32.60
2023-06-02T20:04:07.849Z,32.90
2023-06-02T20:07:49.697Z,33.10
2023-06-02T20:11:32.141Z,33.10
2023-06-02T20:15:14.185Z,33.40
2023-06-02T20:18:56.083Z,33.70
2023-06-02T20:22:37.855Z,33.90
2023-06-02T20:26:19.764Z,34.50
2023-06-02T20:30:01.651Z,34.80
2023-06-02T20:33:43.479Z,35.20
2023-06-02T20:37:25.358Z,35.50
2023-06-02T20:41:07.135Z,35.70
2023-06-02T20:44:48.962Z,35.80
2023-06-02T20:48:30.968Z,35.80
2023-06-02T20:52:12.785Z,36.10
2023-06-02T20:55:54.572Z,36.30
2023-06-02T20:59:36.388Z,36.60
2023-06-02T21:03:18.428Z,36.80
2023-06-02T21:07:00.532Z,36.90
2023-06-02T21:10:42.373Z,36.80
2023-06-02T21:14:24.139Z,36.80
2023-06-02T21:18:06.238Z,36.90
2023-06-02T21:21:48.327Z,37.00
2023-06-02T21:25:30.164Z,37.10
2023-06-02T21:29:11.938Z,37.20
2023-06-02T21:32:53.817Z,37.60
2023-06-02T21:36:36.708Z,38.10
2023-06-02T21:40:18.611Z,38.50
2023-06-02T21:44:00.628Z,38.70
2023-06-02T21:47:42.485Z,39.30
2023-06-02T21:51:25.439Z,39.80
2023-06-02T21:55:08.376Z,40.20
2023-06-02T21:58:50.301Z,40.40
2023-06-02T22:02:33.737Z,40.90
2023-06-02T22:06:15.692Z,41.10
2023-06-02T22:09:57.479Z,41.30
2023-06-02T22:13:39.316Z,41.40
2023-06-02T22:17:21.154Z,41.20
2023-06-02T22:21:04.462Z,41.60
2023-06-02T22:24:46.483Z,41.80
2023-06-02T22:28:28.338Z,42.20
2023-06-02T22:32:10.295Z,42.50
2023-06-02T22:35:52.263Z,42.90
2023-06-02T22:39:34.061Z,43.10
2023-06-02T22:43:15.841Z,43.30
2023-06-02T22:46:57.717Z,43.70
2023-06-02T22:50:39.524Z,43.80
2023-06-02T22:54:21.311Z,44.00
2023-06-02T22:58:03.258Z,44.50
2023-06-02T23:01:45.176Z,44.70
2023-06-02T23:05:27.062Z,44.90
2023-06-02T23:09:08.899Z,45.30
2023-06-02T23:12:50.853Z,45.60
2023-06-02T23:16:32.698Z,45.50
2023-06-02T23:20:14.584Z,45.30
2023-06-02T23:23:56.482Z,45.60
2023-06-02T23:27:38.377Z,45.70
2023-06-02T23:31:20.334Z,45.70
2023-06-02T23:35:02.330Z,45.80
2023-06-02T23:38:44.112Z,45.80
2023-06-02T23:42:26.075Z,45.80
2023-06-02T23:46:08.267Z,45.70
2023-06-02T23:49:50.300Z,45.60
2023-06-02T23:53:34.893Z,45.60
2023-06-02T23:57:17.382Z,45.40
